Time;durP1;ratioP1;P1;durP2;ratioP2;P2;SDS_P1;SDS_P2;PMS_P1;PMS_P2;Temp;Humidity;BMP_temperature;BMP_pressure;BME280_temperature;BME280_humidity;BME280_pressure;Samples;Min_cycle;Max_cycle;Signal;HPM_P1;HPM_P2
2023/12/15 00:00:39;;;;;;;15.17;7.50;;;6.50;1.00;;;;;;4991430;28;20270;-73
2023/12/15 00:03:04;;;;;;;14.87;8.13;;;6.70;1.00;;;;;;4992798;28;20245;-73
2023/12/15 00:05:30;;;;;;;13.20;7.80;;;6.70;1.00;;;;;;4992778;28;20195;-74
2023/12/15 00:07:55;;;;;;;11.80;7.10;;;6.70;1.00;;;;;;4992952;28;20187;-73
2023/12/15 00:10:21;;;;;;;12.33;6.10;;;6.70;1.00;;;;;;4992103;28;20239;-73
2023/12/15 00:12:46;;;;;;;11.63;6.60;;;6.70;1.00;;;;;;4989954;28;20573;-72
2023/12/15 00:15:12;;;;;;;17.10;6.60;;;6.70;1.00;;;;;;4991947;28;20230;-73
2023/12/15 00:17:37;;;;;;;7.47;3.80;;;6.60;1.00;;;;;;4992418;28;20207;-74
2023/12/15 00:20:03;;;;;;;6.23;3.97;;;6.60;1.00;;;;;;4990614;28;20210;-74
2023/12/15 00:22:29;;;;;;;6.87;3.70;;;6.60;1.00;;;;;;4989657;28;20199;-74
2023/12/15 00:24:54;;;;;;;7.07;3.90;;;6.70;1.00;;;;;;4992273;28;20566;-73
2023/12/15 00:27:20;;;;;;;8.90;3.80;;;6.70;1.00;;;;;;4992497;28;20203;-73
2023/12/15 00:29:45;;;;;;;7.90;3.20;;;6.80;1.00;;;;;;4992302;28;20230;-74
2023/12/15 00:32:11;;;;;;;9.63;4.77;;;6.70;1.00;;;;;;4991850;28;20199;-73
2023/12/15 00:34:36;;;;;;;10.90;5.43;;;6.70;1.00;;;;;;4990146;28;20186;-73
2023/12/15 00:37:02;;;;;;;7.40;4.30;;;6.70;1.00;;;;;;4985707;28;20191;-73
2023/12/15 00:39:30;;;;;;;8.90;4.80;;;6.70;1.00;;;;;;4990497;28;20778;-73
2023/12/15 00:41:56;;;;;;;11.40;5.23;;;6.70;1.00;;;;;;4992193;28;20666;-72
2023/12/15 00:44:21;;;;;;;11.03;5.00;;;6.70;1.00;;;;;;4991713;28;20445;-74
2023/12/15 00:46:47;;;;;;;10.17;5.37;;;6.70;1.00;;;;;;4988281;28;20194;-73
2023/12/15 00:49:12;;;;;;;14.30;7.47;;;6.60;1.00;;;;;;4988447;28;20187;-73
2023/12/15 00:51:38;;;;;;;18.50;8.90;;;6.60;1.00;;;;;;4990149;28;20563;-74
2023/12/15 00:54:03;;;;;;;15.87;8.97;;;6.60;1.00;;;;;;4991521;28;20685;-73
2023/12/15 00:56:29;;;;;;;16.30;7.87;;;6.60;1.00;;;;;;4991480;28;20238;-74
2023/12/15 00:58:54;;;;;;;15.43;7.57;;;6.60;1.00;;;;;;4991585;28;20202;-72
2023/12/15 01:01:20;;;;;;;15.70;7.30;;;6.70;1.00;;;;;;4991255;28;20207;-73
2023/12/15 01:03:45;;;;;;;19.17;8.87;;;7.10;1.00;;;;;;4989870;28;20601;-73
2023/12/15 01:06:11;;;;;;;12.10;5.30;;;6.70;1.00;;;;;;4990168;28;20661;-74
2023/12/15 01:08:36;;;;;;;10.90;4.37;;;6.70;1.00;;;;;;4991423;28;20229;-75
2023/12/15 01:11:02;;;;;;;7.50;3.87;;;6.70;1.00;;;;;;4990746;28;20273;-74
2023/12/15 01:13:28;;;;;;;8.43;3.50;;;6.70;1.00;;;;;;4990912;28;20183;-73
2023/12/15 01:15:53;;;;;;;5.47;3.67;;;6.70;1.00;;;;;;4991386;28;20207;-73
2023/12/15 01:18:18;;;;;;;6.27;3.70;;;6.70;1.00;;;;;;4990577;28;20618;-72
2023/12/15 01:20:44;;;;;;;6.20;3.70;;;6.80;1.00;;;;;;4991198;28;20219;-72
2023/12/15 01:23:09;;;;;;;10.63;3.57;;;6.70;1.00;;;;;;4991081;28;20704;-72
2023/12/15 01:25:35;;;;;;;9.17;4.13;;;6.70;1.00;;;;;;4990454;28;20190;-75
2023/12/15 01:28:01;;;;;;;10.33;3.40;;;6.60;1.00;;;;;;4990494;28;20650;-72
2023/12/15 01:30:26;;;;;;;6.63;3.80;;;6.50;1.00;;;;;;4988198;28;20209;-74
2023/12/15 01:32:52;;;;;;;7.20;3.77;;;6.50;1.00;;;;;;4990621;28;20241;-74
2023/12/15 01:35:17;;;;;;;6.43;3.83;;;6.40;1.00;;;;;;4989281;28;20576;-73
2023/12/15 01:37:43;;;;;;;7.77;3.63;;;6.50;1.00;;;;;;4982580;28;20550;-74
2023/12/15 01:40:09;;;;;;;5.77;3.50;;;6.50;1.00;;;;;;4990975;28;20630;-74
2023/12/15 01:42:34;;;;;;;6.00;3.40;;;6.40;1.00;;;;;;4988626;28;20549;-73
2023/12/15 01:45:00;;;;;;;5.50;3.30;;;6.40;1.00;;;;;;4987365;28;20441;-73
2023/12/15 01:47:26;;;;;;;6.00;3.17;;;6.30;1.00;;;;;;4989860;28;20601;-74
2023/12/15 01:49:52;;;;;;;5.37;3.70;;;6.00;1.00;;;;;;4990416;28;20546;-74
2023/12/15 01:52:17;;;;;;;8.10;4.70;;;6.30;1.00;;;;;;4989058;28;20433;-74
2023/12/15 01:54:43;;;;;;;9.60;5.50;;;6.00;1.00;;;;;;4990276;28;20179;-74
2023/12/15 01:57:09;;;;;;;14.73;4.73;;;6.10;1.00;;;;;;4989212;28;20274;-75
2023/12/15 01:59:45;;;;;;;10.33;5.03;;;6.10;1.00;;;;;;4989965;28;20186;-74
2023/12/15 02:02:11;;;;;;;5.97;3.90;;;6.10;1.00;;;;;;4990349;28;20414;-74
2023/12/15 02:04:37;;;;;;;6.67;3.63;;;6.20;1.00;;;;;;4990020;28;20437;-73
2023/12/15 02:07:03;;;;;;;7.00;4.17;;;6.30;1.00;;;;;;4989011;28;20625;-74
2023/12/15 02:09:28;;;;;;;11.53;3.87;;;6.30;1.00;;;;;;4989891;28;20430;-73
2023/12/15 02:11:54;;;;;;;8.33;3.93;;;6.30;1.00;;;;;;4989825;28;20210;-74
2023/12/15 02:14:19;;;;;;;7.30;3.73;;;6.30;1.00;;;;;;4986149;28;20749;-74
2023/12/15 02:16:45;;;;;;;6.17;3.60;;;6.40;1.00;;;;;;4989773;28;20199;-73
2023/12/15 02:19:11;;;;;;;7.20;3.70;;;6.40;1.00;;;;;;4990075;28;20566;-72
2023/12/15 02:21:36;;;;;;;10.80;6.03;;;6.30;1.00;;;;;;4988255;28;20712;-73
2023/12/15 02:24:02;;;;;;;10.20;6.00;;;6.30;1.00;;;;;;4988760;28;20577;-74
2023/12/15 02:26:27;;;;;;;10.77;6.20;;;6.30;1.00;;;;;;4989222;28;20638;-73
2023/12/15 02:28:53;;;;;;;9.67;5.90;;;6.30;1.00;;;;;;4990020;28;20615;-73
2023/12/15 02:31:21;;;;;;;12.33;6.20;;;6.30;1.00;;;;;;4989561;28;20242;-73
2023/12/15 02:33:47;;;;;;;9.30;6.00;;;6.30;1.00;;;;;;4988210;28;20214;-74
2023/12/15 02:36:23;;;;;;;9.57;5.40;;;6.30;1.00;;;;;;4989762;28;20554;-74
2023/12/15 02:38:52;;;;;;;8.93;4.70;;;6.30;1.00;;;;;;4984355;28;20585;-74
2023/12/15 02:41:17;;;;;;;9.67;4.57;;;6.30;1.00;;;;;;4983143;28;20461;-74
2023/12/15 02:43:43;;;;;;;7.47;3.90;;;6.30;1.00;;;;;;4989317;28;20930;-73
2023/12/15 02:46:09;;;;;;;6.90;3.87;;;6.40;1.00;;;;;;4990010;28;20179;-73
2023/12/15 02:48:34;;;;;;;8.70;4.10;;;6.20;1.00;;;;;;4988936;28;20202;-74
2023/12/15 02:51:00;;;;;;;7.33;4.27;;;6.20;1.00;;;;;;4988259;28;20289;-74
2023/12/15 02:53:27;;;;;;;7.47;4.10;;;6.20;1.00;;;;;;4989018;28;20234;-73
2023/12/15 02:55:53;;;;;;;11.23;5.57;;;6.30;1.00;;;;;;4989498;28;20488;-74
2023/12/15 02:58:19;;;;;;;10.77;5.03;;;6.40;1.00;;;;;;4989052;28;20517;-72
2023/12/15 03:00:46;;;;;;;9.43;4.87;;;6.40;1.00;;;;;;4988863;28;20601;-74
2023/12/15 03:03:12;;;;;;;7.50;4.27;;;6.30;1.00;;;;;;4988208;28;20238;-73
2023/12/15 03:05:37;;;;;;;8.47;4.57;;;6.30;1.00;;;;;;4987282;28;20944;-76
2023/12/15 03:08:03;;;;;;;6.53;4.03;;;6.20;1.00;;;;;;4989348;28;20201;-73
2023/12/15 03:10:28;;;;;;;7.93;4.50;;;6.30;1.00;;;;;;4989055;28;20716;-73
2023/12/15 03:12:54;;;;;;;8.10;3.63;;;6.30;1.00;;;;;;4984310;28;20245;-75
2023/12/15 03:15:19;;;;;;;7.97;4.17;;;6.40;1.00;;;;;;4986536;28;20254;-72
2023/12/15 03:17:45;;;;;;;7.83;4.03;;;6.40;1.00;;;;;;4989102;28;20186;-72
2023/12/15 03:20:10;;;;;;;6.80;4.40;;;6.40;1.00;;;;;;4989426;28;20206;-74
2023/12/15 03:22:39;;;;;;;7.37;3.90;;;6.40;1.00;;;;;;4989056;28;20561;-73
2023/12/15 03:25:06;;;;;;;7.80;3.60;;;6.50;1.00;;;;;;4989780;28;20233;-73
2023/12/15 03:27:31;;;;;;;7.03;3.93;;;6.50;1.00;;;;;;4988946;28;20851;-72
2023/12/15 03:29:57;;;;;;;9.20;4.00;;;6.50;1.00;;;;;;4989039;28;20458;-74
2023/12/15 03:32:22;;;;;;;8.90;4.23;;;6.50;1.00;;;;;;4989734;28;20202;-74
2023/12/15 03:34:48;;;;;;;7.73;4.30;;;6.50;1.00;;;;;;4989029;28;20278;-72
2023/12/15 03:37:14;;;;;;;9.67;4.10;;;6.50;1.00;;;;;;4983652;28;20187;-71
2023/12/15 03:39:39;;;;;;;7.70;3.63;;;6.60;1.00;;;;;;4982526;28;20191;-73
2023/12/15 03:42:07;;;;;;;6.77;3.60;;;6.50;1.00;;;;;;4989027;28;20183;-74
2023/12/15 03:44:33;;;;;;;7.27;4.23;;;6.70;1.00;;;;;;4988612;28;20698;-72
2023/12/15 03:46:59;;;;;;;11.80;3.83;;;6.80;1.00;;;;;;4989142;28;20422;-73
2023/12/15 03:49:25;;;;;;;6.67;3.63;;;6.70;1.00;;;;;;4983245;28;20193;-73
2023/12/15 03:51:50;;;;;;;6.67;3.57;;;6.50;1.00;;;;;;4983692;28;20454;-72
2023/12/15 03:54:16;;;;;;;8.00;4.10;;;7.00;1.00;;;;;;4987982;28;20179;-74
2023/12/15 03:56:42;;;;;;;5.73;3.53;;;6.50;1.00;;;;;;4988931;28;20222;-73
2023/12/15 03:59:07;;;;;;;10.03;3.63;;;6.50;1.00;;;;;;4988574;28;20184;-72
2023/12/15 04:01:32;;;;;;;7.40;4.07;;;6.50;1.00;;;;;;4981154;28;20204;-74
2023/12/15 04:03:58;;;;;;;8.10;4.40;;;6.90;1.00;;;;;;4988936;28;20667;-73
2023/12/15 04:06:24;;;;;;;8.63;3.97;;;6.70;1.00;;;;;;4988882;28;20201;-73
2023/12/15 04:08:49;;;;;;;8.33;4.40;;;6.80;1.00;;;;;;4988804;28;20203;-72
2023/12/15 04:11:16;;;;;;;7.80;4.40;;;6.40;1.00;;;;;;4983283;28;20238;-72
2023/12/15 04:13:42;;;;;;;5.77;3.63;;;6.30;1.00;;;;;;4990137;28;20257;-73
2023/12/15 04:16:07;;;;;;;8.53;4.40;;;6.30;1.00;;;;;;4991331;28;20473;-72
2023/12/15 04:18:33;;;;;;;9.83;4.13;;;6.30;1.00;;;;;;4990882;28;20186;-74
2023/12/15 04:21:00;;;;;;;7.63;4.00;;;6.30;1.00;;;;;;4981504;28;20288;-73
2023/12/15 04:23:26;;;;;;;9.53;4.20;;;6.30;1.00;;;;;;4979131;28;20192;-75
2023/12/15 04:25:51;;;;;;;6.67;3.83;;;6.60;1.00;;;;;;4990943;28;20495;-73
2023/12/15 04:28:17;;;;;;;6.00;3.60;;;6.50;1.00;;;;;;4992430;28;20429;-72
2023/12/15 04:30:42;;;;;;;6.60;3.70;;;6.30;1.00;;;;;;4991866;28;20547;-73
2023/12/15 04:33:08;;;;;;;6.93;3.53;;;6.30;1.00;;;;;;4987608;28;20198;-73
2023/12/15 04:35:33;;;;;;;8.23;4.10;;;6.30;1.00;;;;;;4990413;28;20745;-73
2023/12/15 04:37:59;;;;;;;6.33;3.70;;;6.30;1.00;;;;;;4991842;28;20182;-73
2023/12/15 04:40:24;;;;;;;6.23;3.70;;;6.40;1.00;;;;;;4989141;28;20218;-74
2023/12/15 04:42:50;;;;;;;6.57;3.90;;;6.90;1.00;;;;;;4991628;28;20186;-73
2023/12/15 04:45:15;;;;;;;6.73;3.70;;;6.00;1.00;;;;;;4990656;28;20185;-73
2023/12/15 04:47:40;;;;;;;6.07;3.60;;;6.40;1.00;;;;;;4991515;28;20305;-73
2023/12/15 04:50:07;;;;;;;7.40;3.43;;;6.40;1.00;;;;;;4987142;28;20262;-73
2023/12/15 04:52:32;;;;;;;5.10;3.23;;;6.40;1.00;;;;;;4991686;28;20202;-74
2023/12/15 04:54:58;;;;;;;5.53;3.30;;;6.40;1.00;;;;;;4991548;28;20427;-72
2023/12/15 04:57:23;;;;;;;5.67;3.47;;;6.30;1.00;;;;;;4990615;28;20214;-73
2023/12/15 04:59:49;;;;;;;5.80;3.30;;;6.30;1.00;;;;;;4990908;28;20569;-72
2023/12/15 05:02:14;;;;;;;7.10;4.17;;;6.30;1.00;;;;;;4991155;28;20203;-74
2023/12/15 05:04:40;;;;;;;4.63;2.80;;;6.40;1.00;;;;;;4990839;28;20183;-72
2023/12/15 05:07:05;;;;;;;7.43;3.60;;;6.40;1.00;;;;;;4991321;28;20195;-73
2023/12/15 05:09:31;;;;;;;7.43;4.03;;;6.40;1.00;;;;;;4991561;28;20393;-73
2023/12/15 05:11:56;;;;;;;9.03;4.40;;;6.40;1.00;;;;;;4990973;28;20278;-72
2023/12/15 05:14:22;;;;;;;5.77;3.80;;;6.40;1.00;;;;;;4991674;28;20531;-73
2023/12/15 05:16:47;;;;;;;10.00;5.50;;;6.30;1.00;;;;;;4990405;28;20207;-73
2023/12/15 05:19:13;;;;;;;10.73;5.10;;;6.30;1.00;;;;;;4991265;28;20918;-71
2023/12/15 05:21:38;;;;;;;7.50;4.27;;;6.30;1.00;;;;;;4988690;28;20206;-73
2023/12/15 05:24:04;;;;;;;7.57;3.87;;;6.30;1.00;;;;;;4989772;28;20318;-73
2023/12/15 05:26:29;;;;;;;13.83;5.70;;;6.30;1.00;;;;;;4988098;28;20184;-72
2023/12/15 05:28:55;;;;;;;15.83;6.90;;;6.20;1.00;;;;;;4989330;28;20219;-73
2023/12/15 05:31:20;;;;;;;12.30;6.40;;;6.60;1.00;;;;;;4984440;28;20246;-73
2023/12/15 05:33:46;;;;;;;9.87;4.97;;;6.00;1.00;;;;;;4990921;28;20198;-72
2023/12/15 05:36:20;;;;;;;11.83;5.23;;;6.00;1.00;;;;;;4989572;28;20238;-72
2023/12/15 05:38:47;;;;;;;7.70;4.47;;;6.30;1.00;;;;;;4988201;28;20187;-72
2023/12/15 05:41:13;;;;;;;9.30;4.77;;;6.00;1.00;;;;;;4991003;28;20442;-71
2023/12/15 05:43:39;;;;;;;6.63;4.00;;;6.00;1.00;;;;;;4989530;28;20430;-73
2023/12/15 05:46:04;;;;;;;7.10;3.73;;;6.40;1.00;;;;;;4988730;28;20486;-72
2023/12/15 05:48:30;;;;;;;7.70;4.00;;;6.30;1.00;;;;;;4990604;28;20183;-73
2023/12/15 05:50:55;;;;;;;6.17;3.80;;;6.20;1.00;;;;;;4990050;28;20225;-72
2023/12/15 05:53:21;;;;;;;8.70;3.90;;;6.60;1.00;;;;;;4987263;28;20188;-73
2023/12/15 05:55:47;;;;;;;4.70;3.23;;;6.40;1.00;;;;;;4987522;28;20218;-71
2023/12/15 05:58:13;;;;;;;7.03;3.83;;;6.20;1.00;;;;;;4990926;28;20541;-74
2023/12/15 06:00:38;;;;;;;20.43;4.03;;;6.20;1.00;;;;;;4990460;28;20446;-73
2023/12/15 06:03:04;;;;;;;6.10;3.43;;;6.20;1.00;;;;;;4989780;28;20244;-75
2023/12/15 06:05:34;;;;;;;12.77;4.10;;;6.30;1.00;;;;;;4984687;28;20206;-73
2023/12/15 06:08:00;;;;;;;7.70;3.70;;;6.30;1.00;;;;;;4989114;28;20187;-73
2023/12/15 06:10:26;;;;;;;8.50;3.97;;;6.40;1.00;;;;;;4990190;28;20450;-71
2023/12/15 06:12:51;;;;;;;10.73;4.47;;;6.40;1.00;;;;;;4987993;28;20569;-73
2023/12/15 06:15:17;;;;;;;9.73;4.07;;;6.40;1.00;;;;;;4988719;28;20202;-71
2023/12/15 06:17:42;;;;;;;6.80;4.00;;;6.70;1.00;;;;;;4989746;28;20553;-75
2023/12/15 06:20:08;;;;;;;8.10;4.93;;;6.40;1.00;;;;;;4986970;28;20238;-72
2023/12/15 06:22:34;;;;;;;7.60;4.23;;;6.30;1.00;;;;;;4989985;28;20288;-72
2023/12/15 06:25:00;;;;;;;13.80;4.93;;;6.30;1.00;;;;;;4988832;28;20577;-73
2023/12/15 06:27:25;;;;;;;7.23;4.20;;;6.40;1.00;;;;;;4989725;28;20187;-74
2023/12/15 06:29:51;;;;;;;8.70;4.10;;;6.30;1.00;;;;;;4986925;28;20204;-73
2023/12/15 06:32:16;;;;;;;7.50;4.27;;;6.30;1.00;;;;;;4989561;28;20210;-74
2023/12/15 06:34:42;;;;;;;10.53;4.17;;;6.30;1.00;;;;;;4988173;28;20220;-76
2023/12/15 06:37:08;;;;;;;8.27;4.60;;;6.30;1.00;;;;;;4987683;28;20222;-74
2023/12/15 06:39:33;;;;;;;9.00;4.50;;;6.30;1.00;;;;;;4989191;28;20724;-74
2023/12/15 06:41:59;;;;;;;8.93;5.00;;;6.30;1.00;;;;;;4986588;28;20761;-73
2023/12/15 06:44:25;;;;;;;7.70;4.30;;;6.30;1.00;;;;;;4989959;28;20183;-74
2023/12/15 06:46:51;;;;;;;8.70;4.77;;;6.30;1.00;;;;;;4988231;28;20191;-74
2023/12/15 06:49:18;;;;;;;5.80;3.63;;;6.70;1.00;;;;;;4988594;28;20496;-74
2023/12/15 06:51:44;;;;;;;7.50;4.30;;;6.30;1.00;;;;;;4982661;28;20206;-75
2023/12/15 06:54:10;;;;;;;10.00;5.00;;;6.30;1.00;;;;;;4988318;28;20427;-74
2023/12/15 06:56:38;;;;;;;8.43;4.40;;;6.50;1.00;;;;;;4989880;28;20195;-73
2023/12/15 06:59:04;;;;;;;9.93;4.80;;;6.80;1.00;;;;;;4989554;28;20422;-73
2023/12/15 07:01:30;;;;;;;7.70;4.10;;;6.30;1.00;;;;;;4988778;28;20466;-73
2023/12/15 07:03:55;;;;;;;10.77;5.17;;;6.20;1.00;;;;;;4988243;28;20179;-73
2023/12/15 07:06:21;;;;;;;8.20;4.80;;;6.20;1.00;;;;;;4990021;28;20187;-73
2023/12/15 07:08:53;;;;;;;10.20;5.30;;;6.70;1.00;;;;;;4988433;28;20665;-73
2023/12/15 07:11:19;;;;;;;11.93;4.70;;;6.20;1.00;;;;;;4985198;28;20289;-73
2023/12/15 07:13:45;;;;;;;9.83;5.00;;;6.20;1.00;;;;;;4982028;28;21003;-72
2023/12/15 07:16:11;;;;;;;10.67;5.27;;;6.20;1.00;;;;;;4989497;28;21170;-73
2023/12/15 07:18:37;;;;;;;10.03;5.50;;;6.20;1.00;;;;;;4984123;28;20961;-73
2023/12/15 07:21:03;;;;;;;8.23;4.90;;;6.20;1.00;;;;;;4978110;28;20451;-74
2023/12/15 07:23:28;;;;;;;10.27;5.50;;;6.30;1.00;;;;;;4989657;28;20183;-74
2023/12/15 07:25:54;;;;;;;12.90;4.83;;;6.60;1.00;;;;;;4989266;28;20617;-72
2023/12/15 07:28:19;;;;;;;10.37;5.93;;;6.30;1.00;;;;;;4987944;28;20274;-73
2023/12/15 07:30:45;;;;;;;11.93;5.70;;;6.30;1.00;;;;;;4985663;28;20233;-73
2023/12/15 07:33:10;;;;;;;10.03;5.47;;;6.40;1.00;;;;;;4988290;28;20187;-72
2023/12/15 07:35:36;;;;;;;10.63;5.47;;;6.40;1.00;;;;;;4989563;28;20225;-73
2023/12/15 07:38:01;;;;;;;12.53;6.47;;;6.40;1.00;;;;;;4984658;28;20270;-72
2023/12/15 07:40:27;;;;;;;10.30;5.83;;;6.50;1.00;;;;;;4993580;28;20622;-72
2023/12/15 07:42:53;;;;;;;13.48;6.32;;;6.60;1.00;;;;;;4957520;28;20505;-73
2023/12/15 07:45:18;;;;;;;12.10;6.43;;;5.10;1.00;;;;;;4975557;28;20654;-74
2023/12/15 07:47:44;;;;;;;10.87;5.60;;;6.70;1.00;;;;;;4990107;28;20182;-73
2023/12/15 07:50:10;;;;;;;13.67;6.07;;;6.80;1.00;;;;;;4992116;28;20211;-74
2023/12/15 07:52:35;;;;;;;8.67;5.03;;;6.90;1.00;;;;;;4990880;28;20324;-74
2023/12/15 07:55:01;;;;;;;12.50;6.00;;;6.80;1.00;;;;;;4983063;28;20186;-75
2023/12/15 07:57:26;;;;;;;9.87;5.90;;;7.10;1.00;;;;;;4984109;28;20772;-74
2023/12/15 07:59:52;;;;;;;11.40;5.93;;;7.10;1.00;;;;;;4985680;28;20273;-72
2023/12/15 08:02:20;;;;;;;12.73;6.40;;;7.20;1.00;;;;;;4988339;28;20180;-73
2023/12/15 08:04:46;;;;;;;10.80;5.90;;;7.20;1.00;;;;;;4995734;28;20789;-76
2023/12/15 08:07:11;;;;;;;11.10;6.20;;;7.10;1.00;;;;;;4994160;28;20463;-74
2023/12/15 08:09:37;;;;;;;12.83;6.17;;;7.10;1.00;;;;;;4993070;28;20722;-73
2023/12/15 08:12:03;;;;;;;12.50;5.97;;;9.20;1.00;;;;;;4990235;28;20187;-71
2023/12/15 08:14:28;;;;;;;12.63;6.30;;;7.10;1.00;;;;;;4990640;28;20183;-73
2023/12/15 08:16:54;;;;;;;12.23;6.47;;;7.20;1.00;;;;;;4989794;28;20206;-73
2023/12/15 08:19:20;;;;;;;13.13;6.47;;;7.40;1.00;;;;;;4991810;28;20187;-74
2023/12/15 08:21:47;;;;;;;17.03;7.17;;;7.10;1.00;;;;;;4989958;28;20450;-73
2023/12/15 08:24:13;;;;;;;11.00;6.60;;;7.10;1.00;;;;;;4982615;28;20187;-74
2023/12/15 08:26:39;;;;;;;11.13;6.60;;;7.00;1.00;;;;;;4990443;28;20426;-73
2023/12/15 08:29:04;;;;;;;11.93;6.43;;;7.10;1.00;;;;;;4989049;28;20186;-75
2023/12/15 08:31:30;;;;;;;13.73;6.87;;;7.00;1.00;;;;;;4991644;28;20277;-73
2023/12/15 08:33:55;;;;;;;12.80;6.40;;;7.10;1.00;;;;;;4991133;28;20190;-73
2023/12/15 08:36:21;;;;;;;14.13;6.90;;;7.10;1.00;;;;;;4988095;28;20341;-74
2023/12/15 08:38:47;;;;;;;11.60;6.10;;;7.60;1.00;;;;;;4991053;28;20183;-74
2023/12/15 08:41:12;;;;;;;12.47;6.17;;;7.00;1.00;;;;;;4991006;28;20679;-73
2023/12/15 08:43:38;;;;;;;11.67;6.77;;;7.10;1.00;;;;;;4992117;28;20183;-73
2023/12/15 08:46:04;;;;;;;13.27;7.27;;;7.20;1.00;;;;;;4989784;28;20345;-72
2023/12/15 08:48:30;;;;;;;11.53;6.47;;;7.10;1.00;;;;;;4990016;28;20219;-73
2023/12/15 08:50:55;;;;;;;14.50;7.50;;;7.10;1.00;;;;;;4986718;28;20210;-71
2023/12/15 08:53:21;;;;;;;12.93;6.77;;;7.40;1.00;;;;;;4987552;28;20433;-71
2023/12/15 08:55:48;;;;;;;16.53;7.10;;;7.10;1.00;;;;;;4985667;28;20717;-72
2023/12/15 08:58:14;;;;;;;23.77;7.87;;;7.20;1.00;;;;;;4986493;28;20188;-74
2023/12/15 09:00:40;;;;;;;14.10;7.30;;;7.30;1.00;;;;;;4991506;28;20450;-75
2023/12/15 09:03:07;;;;;;;20.93;8.20;;;7.40;1.00;;;;;;4991685;28;20430;-73
2023/12/15 09:05:33;;;;;;;17.17;7.70;;;7.60;1.00;;;;;;4991138;28;20573;-74
2023/12/15 09:07:59;;;;;;;11.53;6.50;;;8.00;1.00;;;;;;4988252;28;20517;-73
2023/12/15 09:10:26;;;;;;;24.17;8.23;;;8.20;1.00;;;;;;4987839;28;20209;-73
2023/12/15 09:12:51;;;;;;;18.43;8.60;;;8.40;1.00;;;;;;4991435;28;20537;-72
2023/12/15 09:15:17;;;;;;;14.50;7.10;;;8.70;1.00;;;;;;4991437;28;20900;-73
2023/12/15 09:17:43;;;;;;;15.57;6.83;;;9.10;1.00;;;;;;4988046;28;20188;-74
2023/12/15 09:20:10;;;;;;;14.10;7.47;;;8.70;1.00;;;;;;4985001;28;20291;-73
2023/12/15 09:22:36;;;;;;;13.27;7.40;;;8.60;1.00;;;;;;4991931;28;20440;-72
2023/12/15 09:25:02;;;;;;;19.13;8.20;;;8.60;1.00;;;;;;4991530;28;20422;-76
2023/12/15 09:27:27;;;;;;;15.50;7.20;;;8.40;1.00;;;;;;4990990;28;20944;-75
2023/12/15 09:29:53;;;;;;;14.60;7.23;;;8.40;1.00;;;;;;4991444;28;20253;-74
2023/12/15 09:32:18;;;;;;;12.20;7.30;;;8.50;1.00;;;;;;4989618;28;20178;-74
2023/12/15 09:34:44;;;;;;;13.87;7.37;;;8.60;1.00;;;;;;4991625;28;20183;-73
2023/12/15 09:37:10;;;;;;;13.67;7.90;;;8.60;1.00;;;;;;4984784;28;20738;-74
2023/12/15 09:39:35;;;;;;;17.60;8.57;;;8.50;1.00;;;;;;4986334;28;20198;-74
2023/12/15 09:42:01;;;;;;;15.97;7.60;;;8.50;1.00;;;;;;4983775;28;20175;-73
2023/12/15 09:44:27;;;;;;;15.90;8.20;;;8.60;1.00;;;;;;4990891;28;20222;-74
2023/12/15 09:46:53;;;;;;;15.10;7.50;;;8.70;1.00;;;;;;4991655;28;20195;-74
2023/12/15 09:49:24;;;;;;;15.93;7.07;;;8.80;1.00;;;;;;4989744;28;20191;-74
2023/12/15 09:51:50;;;;;;;13.13;6.40;;;8.60;1.00;;;;;;4989218;28;20462;-74
2023/12/15 09:54:16;;;;;;;13.53;7.87;;;8.60;1.00;;;;;;4990442;28;20432;-73
2023/12/15 09:56:42;;;;;;;16.20;7.00;;;8.70;1.00;;;;;;4985782;28;20230;-74
2023/12/15 09:59:08;;;;;;;14.77;7.17;;;8.80;1.00;;;;;;4990242;28;20836;-71
2023/12/15 10:01:34;;;;;;;12.70;6.90;;;8.80;1.00;;;;;;4982389;28;20446;-74
2023/12/15 10:03:59;;;;;;;11.70;6.30;;;8.80;1.00;;;;;;4984432;28;20322;-73
2023/12/15 10:06:25;;;;;;;13.37;6.93;;;9.00;1.00;;;;;;4987732;28;20538;-73
2023/12/15 10:08:51;;;;;;;13.20;7.37;;;8.80;1.00;;;;;;4985434;28;20183;-76
2023/12/15 10:11:17;;;;;;;14.57;7.10;;;8.80;1.00;;;;;;4985020;28;20442;-73
2023/12/15 10:13:43;;;;;;;12.83;7.20;;;8.70;1.00;;;;;;4987185;28;20645;-74
2023/12/15 10:16:10;;;;;;;16.47;7.17;;;8.80;1.00;;;;;;4983700;28;20463;-72
2023/12/15 10:18:37;;;;;;;13.60;7.33;;;8.70;1.00;;;;;;4991029;28;20293;-73
2023/12/15 10:21:04;;;;;;;18.40;7.23;;;8.80;1.00;;;;;;4987999;28;20464;-72
2023/12/15 10:23:31;;;;;;;12.53;6.87;;;9.00;1.00;;;;;;4989054;28;20442;-73
2023/12/15 10:26:03;;;;;;;14.40;6.90;;;9.00;1.00;;;;;;4990944;28;20450;-74
2023/12/15 10:28:39;;;;;;;12.57;7.20;;;9.00;1.00;;;;;;4989450;28;20944;-73
2023/12/15 10:31:05;;;;;;;12.47;6.80;;;9.10;1.00;;;;;;4989073;28;20593;-73
2023/12/15 10:33:33;;;;;;;16.00;7.03;;;10.30;1.00;;;;;;4983034;28;20800;-73
2023/12/15 10:36:02;;;;;;;12.23;6.70;;;8.90;1.00;;;;;;4989038;28;20466;-73
2023/12/15 10:38:29;;;;;;;12.67;6.70;;;8.90;1.00;;;;;;4982019;28;20797;-75
2023/12/15 10:40:57;;;;;;;12.00;6.27;;;8.90;1.00;;;;;;4983257;28;20956;-73
2023/12/15 10:43:23;;;;;;;9.90;6.40;;;8.90;1.00;;;;;;4989076;28;20423;-72
2023/12/15 10:45:53;;;;;;;14.90;6.60;;;8.90;1.00;;;;;;4986727;28;20500;-73
2023/12/15 10:48:19;;;;;;;10.93;6.37;;;9.10;1.00;;;;;;4988601;28;20187;-74
2023/12/15 10:50:48;;;;;;;12.50;6.60;;;9.00;1.00;;;;;;4988832;28;21111;-73
2023/12/15 10:53:14;;;;;;;11.10;6.10;;;9.10;1.00;;;;;;4986517;28;20437;-72
2023/12/15 10:55:46;;;;;;;17.93;6.30;;;9.20;1.00;;;;;;4989540;28;20476;-72
2023/12/15 10:58:13;;;;;;;22.77;7.20;;;9.30;1.00;;;;;;4990010;28;20437;-72
2023/12/15 11:00:39;;;;;;;19.60;6.43;;;9.30;1.00;;;;;;4989298;28;20561;-72
2023/12/15 11:03:10;;;;;;;10.33;6.40;;;9.20;1.00;;;;;;4988408;28;20781;-73
2023/12/15 11:05:36;;;;;;;12.97;6.37;;;9.10;1.00;;;;;;4986953;28;20433;-73
2023/12/15 11:08:02;;;;;;;14.07;6.70;;;9.00;1.00;;;;;;4981122;28;20489;-72
2023/12/15 11:10:28;;;;;;;10.40;6.50;;;9.10;1.00;;;;;;4987909;28;20482;-73
2023/12/15 11:12:53;;;;;;;13.20;7.13;;;9.20;1.00;;;;;;4988352;28;20275;-73
2023/12/15 11:15:19;;;;;;;12.63;6.57;;;9.10;1.00;;;;;;4987407;28;20541;-73
2023/12/15 11:17:52;;;;;;;16.87;6.97;;;9.30;1.00;;;;;;4989230;28;20222;-72
2023/12/15 11:20:22;;;;;;;15.53;7.27;;;9.00;1.00;;;;;;4988852;28;21092;-74
2023/12/15 11:22:49;;;;;;;10.53;6.57;;;9.00;1.00;;;;;;4980218;28;20449;-73
2023/12/15 11:25:20;;;;;;;12.50;6.50;;;8.90;1.00;;;;;;4992067;28;20430;-73
2023/12/15 11:28:15;;;;;;;12.00;6.30;;;8.90;1.00;;;;;;4990926;28;20981;-73
2023/12/15 11:30:46;;;;;;;11.10;6.10;;;9.00;1.00;;;;;;4990816;28;20456;-73
2023/12/15 11:33:22;;;;;;;13.57;6.37;;;9.10;1.00;;;;;;4986143;28;20518;-72
2023/12/15 11:36:05;;;;;;;10.23;5.70;;;9.10;1.00;;;;;;4987681;28;20543;-73
2023/12/15 11:38:31;;;;;;;13.80;6.43;;;9.00;1.00;;;;;;4989937;28;20453;-73
2023/12/15 11:40:58;;;;;;;13.70;6.63;;;9.00;1.00;;;;;;4991161;28;20449;-73
2023/12/15 11:43:24;;;;;;;12.20;5.97;;;9.00;1.00;;;;;;4988936;28;20497;-71
2023/12/15 11:45:51;;;;;;;10.03;5.30;;;9.50;1.00;;;;;;4990338;28;20430;-72
2023/12/15 11:48:17;;;;;;;10.27;6.00;;;9.80;1.00;;;;;;4991864;28;20654;-71
2023/12/15 11:50:47;;;;;;;10.20;5.77;;;10.20;1.00;;;;;;4991693;28;20500;-71
2023/12/15 11:53:14;;;;;;;10.83;5.60;;;10.20;1.00;;;;;;4988353;28;20195;-71
2023/12/15 11:55:45;;;;;;;9.03;5.90;;;10.10;1.00;;;;;;4992679;28;20888;-73
2023/12/15 11:58:15;;;;;;;11.77;5.83;;;10.10;1.00;;;;;;4991429;28;20425;-73
2023/12/15 12:00:40;;;;;;;9.63;5.60;;;9.90;1.00;;;;;;4990790;28;20577;-71
2023/12/15 12:03:09;;;;;;;11.43;6.33;;;10.00;1.00;;;;;;4988258;28;20422;-73
2023/12/15 12:05:35;;;;;;;11.27;5.70;;;9.80;1.00;;;;;;4986008;28;20183;-73
2023/12/15 12:08:01;;;;;;;10.37;6.10;;;9.60;1.00;;;;;;4991062;28;20557;-74
2023/12/15 12:10:34;;;;;;;11.30;6.37;;;9.30;1.00;;;;;;4992044;28;20442;-73
2023/12/15 12:13:00;;;;;;;14.20;5.87;;;9.10;1.00;;;;;;4991961;28;20422;-73
2023/12/15 12:15:26;;;;;;;14.93;6.63;;;9.10;1.00;;;;;;4992177;28;20493;-72
2023/12/15 12:17:52;;;;;;;13.20;5.93;;;9.00;1.00;;;;;;4991028;28;20780;-72
2023/12/15 12:20:18;;;;;;;12.87;6.30;;;8.90;1.00;;;;;;4983690;28;20456;-72
2023/12/15 12:22:45;;;;;;;14.20;6.90;;;8.90;1.00;;;;;;4982480;28;20234;-72
2023/12/15 12:25:13;;;;;;;15.10;6.93;;;8.80;1.00;;;;;;4989237;28;20183;-73
2023/12/15 12:27:38;;;;;;;9.57;5.80;;;8.70;1.00;;;;;;4985848;28;20969;-73
2023/12/15 12:30:15;;;;;;;11.50;6.37;;;8.60;1.00;;;;;;4992283;28;20446;-72
2023/12/15 12:32:41;;;;;;;13.27;6.23;;;8.60;1.00;;;;;;4989974;28;20195;-73
2023/12/15 12:35:07;;;;;;;12.80;5.43;;;8.40;1.00;;;;;;4990031;28;20518;-73
2023/12/15 12:37:33;;;;;;;14.70;6.73;;;8.20;1.00;;;;;;4987261;28;20226;-73
2023/12/15 12:39:59;;;;;;;12.60;6.40;;;8.00;1.00;;;;;;4987352;28;20521;-73
2023/12/15 12:42:26;;;;;;;12.20;6.87;;;8.10;1.00;;;;;;4988714;28;20797;-72
2023/12/15 12:44:52;;;;;;;9.13;5.07;;;8.10;1.00;;;;;;4990033;28;20463;-74
2023/12/15 12:47:18;;;;;;;14.83;6.63;;;8.10;1.00;;;;;;4989287;28;20466;-72
2023/12/15 12:49:45;;;;;;;11.67;5.70;;;8.10;1.00;;;;;;4989525;28;20249;-73
2023/12/15 12:52:11;;;;;;;9.83;5.23;;;8.10;1.00;;;;;;4988562;28;20662;-73
2023/12/15 12:54:36;;;;;;;8.23;4.90;;;8.00;1.00;;;;;;4987831;28;20435;-74
2023/12/15 12:57:03;;;;;;;14.60;5.73;;;8.00;1.00;;;;;;4990483;28;20488;-72